Fairfield, NE (68938)

11:00 AM CST on February 14, 2016 (GMT -0600)
Spring Ranch | | Change Station
CLOSE
Current Station
Personal Weather Station
Location: Glenvil, NE
Elevation: 1781 ft
Nearby Weather Stations

Elev 1781 ft 40.42 °N, 98.26 °W | Updated 29 seconds ago

Partly Cloudy
Partly Cloudy
39.9 °F
Feels Like 33 °F
N
11.5
Wind Variable Wind from NW
Gusts 11.5 mph

Today
High -- | Low -- °F
--% Chance of Precip.
Yesterday
High -- | Low -- °F
Precip. -- in
Pressure 29.92 in
Visibility 10.0 miles
Clouds Clear
Windchill 33 °F
Dew Point 32 °F
Humidity 72%
Rainfall 0.00 in
Snow Depth Not available.
7:27 AM 6:06 PM
Waxing Crescent, 43% visible
METAR KHSI 141653Z AUTO 29006KT 10SM CLR 04/M02 A2986 RMK AO2 SLP132 T00391022
Pressure 29.92 in
Visibility 10.0 miles
Clouds Clear
Windchill 33 °F
Dew Point 32 °F
Humidity 72%
Rainfall 0.00 in
Snow Depth Not available.
7:27 AM 6:06 PM
Waxing Crescent, 43% visible
METAR KHSI 141653Z AUTO 29006KT 10SM CLR 04/M02 A2986 RMK AO2 SLP132 T00391022

10-Day Weather Forecast

Almanac

Astronomy

Feb. 14, 2016 Rise Set
Actual Time
Civil Twilight
Nautical Twilight
Astronomical Twilight
Moon
Length of Visible Light
Length of Day
Tomorrow will be .
, % of the Moon is Illuminated

Today's Extremes

State Highs State Lows

Community

WunderPhotos

Upload Photos

1,892,837 photos uploaded!

WunderBlog® & News

Nearby

Air Quality

  Air Quality AQ Index Pollutant
Not available.

Snow Depth

Station Depth Elevation

Earthquake Activity

City Distance Mag. Time & Date
Minimum magnitude displayed is 2.5.

Coastal Water Temperatures

Place Temperature

Stations

Nearby Weather Stations

Station Location Temp. Windchill Dew Point Humidity Wind Precip. Elev Updated Type
                   

Watches & Warnings

There are currently no watches in effect.